createdAt,value
2023-01-18T00:00:28.348Z,-2.40
2023-01-18T00:04:30.051Z,-2.40
2023-01-18T00:08:33.321Z,-2.30
2023-01-18T00:12:35.021Z,-2.30
2023-01-18T00:16:36.749Z,-2.50
2023-01-18T00:20:38.520Z,-2.50
2023-01-18T00:24:40.203Z,-2.50
2023-01-18T00:28:42.391Z,-2.50
2023-01-18T00:32:45.026Z,-2.40
2023-01-18T00:36:48.573Z,-2.50
2023-01-18T00:40:50.520Z,-2.50
2023-01-18T00:44:52.268Z,-2.50
2023-01-18T00:48:55.643Z,-2.40
2023-01-18T00:52:58.877Z,-2.50
2023-01-18T00:57:00.868Z,-2.50
2023-01-18T01:01:02.679Z,-2.60
2023-01-18T01:05:23.252Z,-2.70
2023-01-18T01:09:27.099Z,-2.70
2023-01-18T01:13:47.197Z,-2.60
2023-01-18T01:18:07.629Z,-2.70
2023-01-18T01:22:28.152Z,-2.70
2023-01-18T01:26:29.801Z,-2.70
2023-01-18T01:30:31.484Z,-2.70
2023-01-18T01:34:33.309Z,-2.70
2023-01-18T01:38:35.425Z,-2.70
2023-01-18T01:42:37.077Z,-2.70
2023-01-18T01:47:05.963Z,-2.70
2023-01-18T01:51:07.844Z,-2.80
2023-01-18T01:55:17.896Z,-2.90
2023-01-18T01:59:20.053Z,-2.90
2023-01-18T02:03:24.250Z,-2.80
2023-01-18T02:07:28.876Z,-2.80
2023-01-18T02:11:30.638Z,-2.80
2023-01-18T02:15:54.697Z,-2.90
2023-01-18T02:20:31.427Z,-3.00
2023-01-18T02:24:37.504Z,-3.10
2023-01-18T02:28:41.192Z,-3.10
2023-01-18T02:33:01.380Z,-3.10
2023-01-18T02:37:06.264Z,-3.00
2023-01-18T02:41:18.963Z,-3.00
2023-01-18T02:45:49.773Z,-3.00
2023-01-18T02:49:51.506Z,-3.10
2023-01-18T02:53:53.274Z,-3.00
2023-01-18T02:58:00.484Z,-3.10
2023-01-18T03:02:07.866Z,-3.10
2023-01-18T03:06:10.128Z,-3.00
2023-01-18T03:10:14.622Z,-3.10
2023-01-18T03:14:37.574Z,-3.10
2023-01-18T03:19:04.129Z,-3.10
2023-01-18T03:23:36.230Z,-3.20
2023-01-18T03:27:57.773Z,-3.10
2023-01-18T03:32:27.555Z,-3.10
2023-01-18T03:36:35.108Z,-3.20
2023-01-18T03:40:37.207Z,-3.20
2023-01-18T03:44:52.447Z,-3.10
2023-01-18T03:48:54.329Z,-3.20
2023-01-18T03:53:03.392Z,-3.20
2023-01-18T03:57:17.509Z,-3.20
2023-01-18T04:01:20.282Z,-3.20
2023-01-18T04:05:22.006Z,-3.30
2023-01-18T04:09:24.963Z,-3.30
2023-01-18T04:13:26.592Z,-3.30
2023-01-18T04:17:28.547Z,-3.40
2023-01-18T04:21:30.218Z,-3.30
2023-01-18T04:25:31.870Z,-3.40
2023-01-18T04:29:33.527Z,-3.40
2023-01-18T04:33:35.144Z,-3.50
2023-01-18T04:37:38.133Z,-3.50
2023-01-18T04:41:39.959Z,-3.50
2023-01-18T04:45:41.698Z,-3.50
2023-01-18T04:49:43.337Z,-3.50
2023-01-18T04:53:45.544Z,-3.50
2023-01-18T04:57:47.203Z,-3.60
2023-01-18T05:01:48.854Z,-3.60
2023-01-18T05:05:50.591Z,-3.60
2023-01-18T05:09:52.350Z,-3.50
2023-01-18T05:13:54.081Z,-3.50
2023-01-18T05:17:55.737Z,-3.40
2023-01-18T05:21:57.486Z,-3.40
2023-01-18T05:25:59.432Z,-3.40
2023-01-18T05:30:02.078Z,-3.50
2023-01-18T05:34:03.767Z,-3.40
2023-01-18T05:38:05.488Z,-3.40
2023-01-18T05:42:07.167Z,-3.50
2023-01-18T05:46:08.915Z,-3.50
2023-01-18T05:50:10.942Z,-3.60
2023-01-18T05:54:13.183Z,-3.50
2023-01-18T05:58:14.860Z,-3.50
2023-01-18T06:02:18.264Z,-3.50
2023-01-18T06:06:19.993Z,-3.50
2023-01-18T06:10:21.748Z,-3.60
2023-01-18T06:14:23.393Z,-3.60
2023-01-18T06:18:26.743Z,-3.60
2023-01-18T06:22:28.534Z,-3.60
2023-01-18T06:26:31.117Z,-3.70
2023-01-18T06:30:34.352Z,-3.70
2023-01-18T06:34:36.823Z,-3.60
2023-01-18T06:38:38.501Z,-3.60
2023-01-18T06:42:41.041Z,-3.70
2023-01-18T06:46:46.104Z,-3.70
2023-01-18T06:50:48.393Z,-3.70
2023-01-18T06:54:50.104Z,-3.70
2023-01-18T06:58:51.929Z,-3.80
2023-01-18T07:02:53.656Z,-3.70
2023-01-18T07:07:28.268Z,-3.60
2023-01-18T07:11:31.067Z,-3.50
2023-01-18T07:15:32.681Z,-3.60
2023-01-18T07:19:34.818Z,-3.60
2023-01-18T07:23:38.055Z,-3.50
2023-01-18T07:27:43.101Z,-3.50
2023-01-18T07:31:44.885Z,-3.50
2023-01-18T07:35:46.542Z,-3.60
2023-01-18T07:39:48.241Z,-3.70
2023-01-18T07:43:49.918Z,-3.50
2023-01-18T07:47:53.312Z,-3.60
2023-01-18T07:51:54.937Z,-3.60
2023-01-18T07:56:01.158Z,-3.50
2023-01-18T08:00:03.445Z,-3.40
2023-01-18T08:04:05.915Z,-3.30
2023-01-18T08:08:12.789Z,-3.40
2023-01-18T08:12:17.947Z,-3.40
2023-01-18T08:16:20.002Z,-3.30
2023-01-18T08:20:22.018Z,-3.30
2023-01-18T08:24:23.754Z,-3.20
2023-01-18T08:28:25.376Z,-3.10
2023-01-18T08:32:27.054Z,-3.00
2023-01-18T08:36:28.740Z,-3.00
2023-01-18T08:40:30.626Z,-3.00
2023-01-18T08:44:32.338Z,-3.00
2023-01-18T08:48:34.296Z,-2.90
2023-01-18T08:52:36.435Z,-2.80
2023-01-18T08:56:38.155Z,-2.70
2023-01-18T09:00:39.786Z,-2.60
2023-01-18T09:04:42.252Z,-2.40
2023-01-18T09:08:47.601Z,-2.30
2023-01-18T09:12:50.046Z,-2.10
2023-01-18T09:16:52.757Z,-2.00
2023-01-18T09:20:54.439Z,-1.80
2023-01-18T09:24:57.460Z,-1.60
2023-01-18T09:28:59.155Z,-1.40
2023-01-18T09:33:01.385Z,-1.30
2023-01-18T09:37:03.238Z,-1.20
2023-01-18T09:41:22.122Z,-1.00
2023-01-18T09:45:29.726Z,-0.90
2023-01-18T09:49:54.901Z,-0.80
2023-01-18T09:54:08.787Z,-0.70
2023-01-18T09:58:24.598Z,-0.60
2023-01-18T10:02:35.847Z,-0.50
2023-01-18T10:06:48.979Z,-0.20
2023-01-18T10:10:57.483Z,0.00
2023-01-18T10:15:13.676Z,-0.10
2023-01-18T10:19:21.562Z,0.00
2023-01-18T10:23:36.571Z,0.00
2023-01-18T10:27:55.398Z,0.00
2023-01-18T10:32:09.185Z,0.10
2023-01-18T10:36:19.540Z,0.10
2023-01-18T10:40:22.965Z,0.20
2023-01-18T10:44:24.742Z,0.30
2023-01-18T10:48:32.812Z,0.30
2023-01-18T10:52:34.469Z,0.30
2023-01-18T10:56:36.173Z,0.30
2023-01-18T11:00:37.923Z,0.40
2023-01-18T11:04:41.889Z,0.40
2023-01-18T11:08:43.942Z,0.30
2023-01-18T11:12:48.402Z,0.40
2023-01-18T11:16:59.094Z,0.50
2023-01-18T11:21:01.850Z,0.50
2023-01-18T11:25:04.169Z,0.70
2023-01-18T11:29:07.213Z,0.70
2023-01-18T11:33:18.357Z,0.70
2023-01-18T11:37:36.785Z,0.80
2023-01-18T11:41:38.584Z,0.90
2023-01-18T11:45:54.251Z,1.00
2023-01-18T11:50:20.938Z,1.10
2023-01-18T11:54:32.625Z,1.20
2023-01-18T11:58:36.027Z,1.30
2023-01-18T12:02:47.929Z,1.30
2023-01-18T12:07:03.299Z,1.30
2023-01-18T12:11:38.435Z,1.40
2023-01-18T12:15:51.853Z,1.60
2023-01-18T12:20:25.540Z,1.70
2023-01-18T12:24:58.035Z,1.70
2023-01-18T12:29:24.217Z,1.80
2023-01-18T12:34:03.197Z,1.90
2023-01-18T12:38:24.685Z,1.90
2023-01-18T12:43:05.055Z,1.90
2023-01-18T12:47:39.296Z,2.00
2023-01-18T12:51:42.028Z,2.10
2023-01-18T12:55:47.216Z,2.20
2023-01-18T13:00:18.854Z,2.30
2023-01-18T13:04:44.527Z,2.30
2023-01-18T13:09:00.890Z,2.40
2023-01-18T13:13:05.804Z,2.50
2023-01-18T13:17:28.406Z,2.50
2023-01-18T13:22:11.695Z,2.70
2023-01-18T13:26:28.338Z,2.80
2023-01-18T13:30:33.230Z,2.80
2023-01-18T13:34:47.662Z,2.90
2023-01-18T13:39:07.483Z,2.90
2023-01-18T13:43:27.982Z,3.00
2023-01-18T13:47:35.850Z,3.30
2023-01-18T13:51:40.675Z,3.50
2023-01-18T13:56:00.433Z,3.60
2023-01-18T14:00:03.952Z,3.50
2023-01-18T14:04:23.519Z,3.50
2023-01-18T14:08:30.559Z,3.50
2023-01-18T14:12:48.869Z,3.50
2023-01-18T14:17:08.451Z,4.00
2023-01-18T14:21:15.206Z,4.50
2023-01-18T14:25:53.191Z,4.90
2023-01-18T14:30:08.039Z,4.90
2023-01-18T14:34:28.379Z,4.50
2023-01-18T14:38:30.999Z,4.30
2023-01-18T14:42:34.890Z,4.00
2023-01-18T14:46:37.113Z,4.00
2023-01-18T14:50:45.618Z,3.90
2023-01-18T14:54:55.436Z,3.70
2023-01-18T14:59:03.049Z,3.60
2023-01-18T15:03:12.855Z,3.40
2023-01-18T15:07:19.477Z,3.30
2023-01-18T15:11:24.255Z,3.20
2023-01-18T15:15:30.170Z,3.20
2023-01-18T15:19:44.033Z,3.10
2023-01-18T15:23:46.940Z,3.00
2023-01-18T15:27:53.130Z,3.00
2023-01-18T15:32:26.942Z,2.90
2023-01-18T15:36:28.827Z,2.70
2023-01-18T15:40:31.197Z,2.70
2023-01-18T15:44:47.754Z,2.50
2023-01-18T15:48:56.350Z,2.40
2023-01-18T15:53:09.743Z,2.40
2023-01-18T15:57:17.409Z,2.30
2023-01-18T16:01:22.225Z,2.20
2023-01-18T16:05:26.884Z,2.20
2023-01-18T16:09:28.658Z,2.00
2023-01-18T16:13:39.355Z,1.90
2023-01-18T16:17:43.583Z,1.70
2023-01-18T16:21:48.506Z,1.60
2023-01-18T16:25:52.828Z,1.50
2023-01-18T16:29:56.564Z,1.50
2023-01-18T16:33:58.207Z,1.60
2023-01-18T16:38:00.473Z,1.60
2023-01-18T16:42:03.065Z,1.40
2023-01-18T16:46:04.837Z,1.40
2023-01-18T16:50:16.573Z,1.40
2023-01-18T16:54:18.745Z,1.30
2023-01-18T16:58:21.288Z,1.20
2023-01-18T17:02:23.061Z,1.40
2023-01-18T17:06:26.323Z,1.40
2023-01-18T17:10:28.354Z,1.30
2023-01-18T17:14:30.024Z,1.20
2023-01-18T17:18:31.869Z,1.20
2023-01-18T17:22:33.558Z,1.30
2023-01-18T17:26:36.025Z,1.30
2023-01-18T17:30:38.137Z,1.30
2023-01-18T17:34:39.840Z,1.20
2023-01-18T17:38:41.514Z,1.20
2023-01-18T17:42:43.326Z,1.20
2023-01-18T17:46:45.072Z,1.10
2023-01-18T17:50:46.820Z,1.10
2023-01-18T17:54:48.513Z,1.10
2023-01-18T17:58:50.628Z,1.10
2023-01-18T18:02:53.562Z,1.00
2023-01-18T18:06:58.667Z,1.10
2023-01-18T18:11:00.789Z,1.20
2023-01-18T18:15:03.770Z,1.10
2023-01-18T18:19:05.869Z,1.00
2023-01-18T18:23:07.513Z,0.90
2023-01-18T18:27:09.209Z,0.90
2023-01-18T18:31:16.025Z,1.00
2023-01-18T18:35:26.446Z,1.00
2023-01-18T18:39:28.399Z,0.90
2023-01-18T18:43:30.196Z,0.90
2023-01-18T18:47:32.151Z,0.90
2023-01-18T18:51:36.883Z,0.90
2023-01-18T18:55:38.573Z,0.90
2023-01-18T18:59:40.579Z,0.80
2023-01-18T19:03:42.287Z,0.80
2023-01-18T19:07:44.436Z,0.80
2023-01-18T19:11:54.307Z,0.90
2023-01-18T19:15:56.916Z,0.80
2023-01-18T19:19:59.193Z,0.80
2023-01-18T19:24:00.887Z,0.80
2023-01-18T19:28:02.860Z,0.80
2023-01-18T19:32:05.493Z,0.80
2023-01-18T19:36:13.711Z,0.90
2023-01-18T19:40:16.533Z,0.80
2023-01-18T19:44:18.264Z,0.70
2023-01-18T19:48:19.925Z,0.70
2023-01-18T19:52:21.968Z,0.70
2023-01-18T19:56:28.933Z,0.70
2023-01-18T20:00:30.549Z,0.50
2023-01-18T20:04:33.739Z,0.60
2023-01-18T20:08:35.849Z,0.70
2023-01-18T20:12:38.264Z,0.70
2023-01-18T20:16:40.058Z,0.60
2023-01-18T20:20:41.770Z,0.70
2023-01-18T20:24:44.127Z,0.60
2023-01-18T20:28:46.160Z,0.60
2023-01-18T20:32:47.880Z,0.80
2023-01-18T20:36:50.017Z,0.80
2023-01-18T20:40:54.060Z,0.80
2023-01-18T20:45:00.261Z,0.90
2023-01-18T20:49:03.356Z,0.80
2023-01-18T20:53:05.157Z,1.00
2023-01-18T20:57:06.975Z,1.00
2023-01-18T21:01:16.576Z,1.10
2023-01-18T21:05:18.307Z,1.00
2023-01-18T21:09:20.161Z,1.00
2023-01-18T21:13:22.031Z,1.10
2023-01-18T21:17:23.859Z,1.00
2023-01-18T21:21:31.265Z,0.90
2023-01-18T21:25:32.911Z,1.00
2023-01-18T21:29:34.542Z,1.10
2023-01-18T21:33:36.285Z,1.20
2023-01-18T21:37:37.975Z,1.30
2023-01-18T21:41:58.609Z,1.30
2023-01-18T21:46:00.621Z,1.30
2023-01-18T21:50:20.996Z,1.40
2023-01-18T21:54:22.673Z,1.40
2023-01-18T21:58:43.130Z,1.50
2023-01-18T22:02:44.874Z,1.50
2023-01-18T22:06:47.235Z,1.50
2023-01-18T22:10:49.013Z,1.60
2023-01-18T22:14:50.718Z,1.60
2023-01-18T22:18:52.353Z,1.60
2023-01-18T22:22:55.043Z,1.70
2023-01-18T22:26:56.806Z,1.70
2023-01-18T22:30:58.765Z,1.70
2023-01-18T22:35:00.482Z,1.70
2023-01-18T22:39:02.331Z,1.80
2023-01-18T22:43:04.165Z,1.80
2023-01-18T22:47:05.801Z,1.80
2023-01-18T22:51:10.637Z,1.80
2023-01-18T22:55:12.532Z,1.80
2023-01-18T22:59:14.217Z,1.80
2023-01-18T23:03:17.375Z,1.90
2023-01-18T23:07:19.939Z,1.90
2023-01-18T23:11:24.604Z,2.00
2023-01-18T23:15:45.212Z,2.00
2023-01-18T23:19:47.222Z,2.00
2023-01-18T23:23:48.928Z,1.90
2023-01-18T23:27:50.574Z,1.90
2023-01-18T23:31:52.221Z,1.90
2023-01-18T23:35:53.833Z,1.80
2023-01-18T23:40:14.246Z,1.80
2023-01-18T23:44:34.709Z,1.80
2023-01-18T23:48:55.180Z,1.90
2023-01-18T23:53:18.824Z,1.90
2023-01-18T23:57:20.436Z,1.90
